Maersk Visby — 9V8827 — position and weather

sailwx.info

Track history (hours):
 
Tides and Currents Weather Stations Pressure Air Temp Water Temp Dewpoint Dewpoint Depression Visibility Wind Speed Wind Dir Waves Ship Positions

Maersk Visby

Last reported at 2015-Jul-14 17:06 UTC. Time now 2015-Jul-30 23:03 UTC.
Position S 33°50' E 018°20'.
Warning: this ship's position is 16 days out of date.

Length 180 m; draft 10.4 m.

Type: Ship (hazmat cat A). MMSI: 564979000.

Date/timePositionNaut miles runAvg speedWind from/ knotsBaromVisibWave heightAir tempDewpointWater temp
2015-Jul-14 17:06S 33°50' E 018°20'6 0.2
2015-Jul-13 13:22S 33°52' E 018°27'0 0.3
2015-Jul-13 12:27S 33°52' E 018°27'0 0.0
2015-Jul-13 11:27S 33°52' E 018°27'0 0.0
2015-Jul-13 10:33S 33°52' E 018°27'0 0.0
2015-Jul-13 09:24S 33°52' E 018°27'0 0.0
2015-Jul-13 08:27S 33°52' E 018°27'0 0.0
2015-Jul-13 07:33S 33°52' E 018°27'0 0.0
2015-Jul-13 06:27S 33°52' E 018°27'0 0.1
2015-Jul-13 05:33S 33°52' E 018°27'0 0.0
2015-Jul-13 04:33S 33°52' E 018°27'0 0.0
2015-Jul-13 03:33S 33°52' E 018°27'0 0.0
2015-Jul-13 02:33S 33°52' E 018°27'0 0.0
2015-Jul-13 01:33S 33°52' E 018°27'0 0.0
2015-Jul-12 23:30S 33°52' E 018°27'0 0.0
2015-Jul-12 21:33S 33°52' E 018°27'0 0.0
2015-Jul-12 20:33S 33°52' E 018°27'0 0.0
2015-Jul-12 19:15S 33°52' E 018°27'0 0.0
2015-Jul-12 17:30S 33°52' E 018°27'0 0.0
2015-Jul-12 12:12S 33°52' E 018°27'0 0.0
2015-Jul-12 10:21S 33°52' E 018°27'0 0.0
2015-Jul-12 08:27S 33°52' E 018°27'0 0.0
2015-Jul-12 06:30S 33°52' E 018°27'0 0.0
2015-Jul-12 05:15S 33°52' E 018°27'0 0.0
2015-Jul-12 04:24S 33°52' E 018°27'0 0.0
2015-Jul-12 03:33S 33°52' E 018°27'0 0.0
2015-Jul-12 01:27S 33°52' E 018°27'0 0.0
2015-Jul-11 23:33S 33°52' E 018°27'0 0.0
2015-Jul-11 22:30S 33°52' E 018°27'0 0.0
2015-Jul-11 21:30S 33°52' E 018°27'0 0.1
2015-Jul-11 20:33S 33°52' E 018°27'0 0.0
2015-Jul-11 19:33S 33°52' E 018°27'0 0.0
2015-Jul-11 18:21S 33°52' E 018°27'0 0.2
2015-Jul-11 17:33S 33°52' E 018°27'0 0.1
2015-Jul-11 16:33S 33°52' E 018°27'130 7.5
2015-Jul-10 23:11S 34°52' E 020°46'810.0
2015-Jul-10 22:23S 34°51' E 020°56'910.2
2015-Jul-10 21:32S 34°49' E 021°06'2610.3
2015-Jul-10 19:03S 34°46' E 021°37'1910.4
2015-Jul-10 17:13S 34°43' E 021°60'710.7
2015-Jul-10 16:32S 34°41' E 022°09'49710.6
2015-Jul-08 17:26S 30°35' E 030°42'8 8.8
2015-Jul-08 16:31S 30°29' E 030°47'9 9.0
2015-Jul-08 15:33S 30°21' E 030°52'9 9.2
2015-Jul-08 14:33S 30°13' E 030°58'1010.3
2015-Jul-08 13:33S 30°04' E 031°04'1010.0
2015-Jul-08 12:33S 29°56' E 031°10'8 7.9
2015-Jul-08 11:34S 29°52' E 031°02'2 1.5
2015-Jul-08 10:32S 29°53' E 031°00'0 0.0
2015-Jul-08 09:32S 29°53' E 031°00'0 0.0
2015-Jul-08 08:29S 29°53' E 031°00'0 0.0
2015-Jul-08 07:29S 29°53' E 031°00'0 0.0
2015-Jul-08 06:32S 29°53' E 031°00'0 0.0
2015-Jul-08 05:32S 29°53' E 031°00'0 0.0
2015-Jul-08 04:32S 29°53' E 031°00'0 0.0
2015-Jul-08 03:32S 29°53' E 031°00'0 0.0
2015-Jul-08 02:32S 29°53' E 031°00'0 0.0
2015-Jul-08 01:32S 29°53' E 031°00'0 0.0
2015-Jul-08 00:32S 29°53' E 031°00'0 0.0
2015-Jul-07 23:32S 29°53' E 031°00'0 0.0
2015-Jul-07 22:32S 29°53' E 031°00'0 0.0
2015-Jul-07 21:29S 29°53' E 031°00'0 0.0
2015-Jul-07 20:32S 29°53' E 031°00'0 0.0
2015-Jul-07 19:32S 29°53' E 031°00'0 0.0
2015-Jul-07 18:32S 29°53' E 031°00'0 0.0
2015-Jul-07 17:29S 29°53' E 031°00'0 0.0
2015-Jul-07 16:23S 29°53' E 031°00'0 0.0
2015-Jul-07 15:32S 29°53' E 031°00'0 0.0
2015-Jul-07 14:32S 29°53' E 031°00'0 0.0
2015-Jul-07 13:32S 29°53' E 031°00'0 0.0
2015-Jul-07 12:32S 29°53' E 031°00'0 0.0
2015-Jul-07 11:32S 29°53' E 031°00'0 0.0
2015-Jul-07 10:29S 29°53' E 031°00'0 0.0
2015-Jul-07 09:32S 29°53' E 031°00'0 0.0
2015-Jul-07 08:32S 29°53' E 031°00'0 0.0
2015-Jul-07 07:32S 29°53' E 031°00'0 0.0
2015-Jul-07 06:32S 29°53' E 031°00'0 0.0
2015-Jul-07 05:32S 29°53' E 031°00'0 0.0
2015-Jul-07 04:32S 29°53' E 031°00'0 0.0
2015-Jul-07 03:29S 29°53' E 031°00'0 0.0
2015-Jul-07 02:29S 29°53' E 031°00'0 0.0
2015-Jul-07 01:26S 29°53' E 031°00'0 0.0
2015-Jul-07 00:32S 29°53' E 031°00'0 0.0
2015-Jul-06 23:32S 29°53' E 031°00'0 0.0
2015-Jul-06 22:32S 29°53' E 031°00'0 0.0
2015-Jul-06 21:32S 29°53' E 031°00'0 0.0
2015-Jul-06 20:29S 29°53' E 031°00'0 0.0
2015-Jul-06 19:29S 29°53' E 031°00'0 0.0
2015-Jul-06 18:23S 29°53' E 031°00'0 0.0
2015-Jul-06 17:29S 29°53' E 031°00'0 0.0
2015-Jul-06 16:32S 29°53' E 031°00'0 0.0
2015-Jul-06 15:32S 29°53' E 031°00'0 0.0
2015-Jul-06 14:32S 29°53' E 031°00'0 0.0
2015-Jul-06 13:29S 29°53' E 031°00'0 0.0
2015-Jul-06 12:29S 29°53' E 031°00'0 0.0
2015-Jul-06 11:29S 29°53' E 031°00'0 0.0
2015-Jul-06 10:29S 29°53' E 031°00'0 0.0
2015-Jul-06 09:32S 29°53' E 031°00'0 0.0
2015-Jul-06 08:32S 29°53' E 031°00'0 0.0
2015-Jul-06 07:32S 29°53' E 031°00'0 0.0
2015-Jul-06 06:32S 29°53' E 031°00'0 0.0
2015-Jul-06 05:32S 29°53' E 031°00'0 0.0
2015-Jul-06 04:32S 29°53' E 031°00'0 0.0
2015-Jul-06 03:32S 29°53' E 031°00'0 0.0
2015-Jul-06 02:32S 29°53' E 031°00'0 0.0
2015-Jul-06 01:32S 29°53' E 031°00'0 0.0
2015-Jul-06 00:32S 29°53' E 031°00'0 0.0
2015-Jul-05 23:32S 29°53' E 031°00'0 0.0
2015-Jul-05 22:32S 29°53' E 031°00'0 0.0
2015-Jul-05 21:32S 29°53' E 031°00'0 0.0
2015-Jul-05 20:32S 29°53' E 031°00'0 0.0
2015-Jul-05 19:32S 29°53' E 031°00'0 0.0
2015-Jul-05 18:29S 29°53' E 031°00'0 0.0
2015-Jul-05 17:32S 29°53' E 031°00'0 0.0
2015-Jul-05 16:32S 29°53' E 031°00'0 0.0
2015-Jul-05 15:32S 29°53' E 031°00'0 0.0
2015-Jul-05 14:32S 29°53' E 031°00'0 0.0
2015-Jul-05 13:32S 29°53' E 031°00'0 0.0
2015-Jul-05 12:32S 29°53' E 031°00'0 0.0
2015-Jul-05 11:32S 29°53' E 031°00'0 0.0
2015-Jul-05 10:32S 29°53' E 031°00'0 0.0
2015-Jul-05 09:32S 29°53' E 031°00'0 0.0
2015-Jul-05 08:32S 29°53' E 031°00'0 0.0
2015-Jul-05 07:29S 29°53' E 031°00'0 0.0
2015-Jul-05 06:32S 29°53' E 031°00'2 1.7
2015-Jul-05 05:33S 29°52' E 031°02'5 5.3
2015-Jul-05 04:34S 29°49' E 031°07'2 1.7
2015-Jul-05 03:34S 29°50' E 031°08'5 5.0
2015-Jul-05 02:34S 29°55' E 031°09'1312.6
2015-Jul-05 01:33S 30°07' E 031°02'1919.2
2015-Jul-05 00:33S 30°23' E 030°51'2019.4
2015-Jul-04 23:31S 30°40' E 030°38'1718.4
2015-Jul-04 22:33S 30°55' E 030°28'1917.0
2015-Jul-04 21:27S 31°10' E 030°15'  
Track history (hours):
 
Tides and Currents Weather Stations Pressure Air Temp Water Temp Dewpoint Dewpoint Depression Visibility Wind Speed Wind Dir Waves Ship Positions

Maersk Visby

Last reported at 2015-Jul-14 17:06 UTC. Time now 2015-Jul-30 23:03 UTC.
Position S 33°50' E 018°20'.
Warning: this ship's position is 16 days out of date.

Length 180 m; draft 10.4 m.

Type: Ship (hazmat cat A). MMSI: 564979000.

Date/timePositionNaut miles runAvg speedWind from/ knotsBaromVisibWave heightAir tempDewpointWater temp
2015-Jul-14 17:06S 33°50' E 018°20'6 0.2
2015-Jul-13 13:22S 33°52' E 018°27'0 0.3
2015-Jul-13 12:27S 33°52' E 018°27'0 0.0
2015-Jul-13 11:27S 33°52' E 018°27'0 0.0
2015-Jul-13 10:33S 33°52' E 018°27'0 0.0
2015-Jul-13 09:24S 33°52' E 018°27'0 0.0
2015-Jul-13 08:27S 33°52' E 018°27'0 0.0
2015-Jul-13 07:33S 33°52' E 018°27'0 0.0
2015-Jul-13 06:27S 33°52' E 018°27'0 0.1
2015-Jul-13 05:33S 33°52' E 018°27'0 0.0
2015-Jul-13 04:33S 33°52' E 018°27'0 0.0
2015-Jul-13 03:33S 33°52' E 018°27'0 0.0
2015-Jul-13 02:33S 33°52' E 018°27'0 0.0
2015-Jul-13 01:33S 33°52' E 018°27'0 0.0
2015-Jul-12 23:30S 33°52' E 018°27'0 0.0
2015-Jul-12 21:33S 33°52' E 018°27'0 0.0
2015-Jul-12 20:33S 33°52' E 018°27'0 0.0
2015-Jul-12 19:15S 33°52' E 018°27'0 0.0
2015-Jul-12 17:30S 33°52' E 018°27'0 0.0
2015-Jul-12 12:12S 33°52' E 018°27'0 0.0
2015-Jul-12 10:21S 33°52' E 018°27'0 0.0
2015-Jul-12 08:27S 33°52' E 018°27'0 0.0
2015-Jul-12 06:30S 33°52' E 018°27'0 0.0
2015-Jul-12 05:15S 33°52' E 018°27'0 0.0
2015-Jul-12 04:24S 33°52' E 018°27'0 0.0
2015-Jul-12 03:33S 33°52' E 018°27'0 0.0
2015-Jul-12 01:27S 33°52' E 018°27'0 0.0
2015-Jul-11 23:33S 33°52' E 018°27'0 0.0
2015-Jul-11 22:30S 33°52' E 018°27'0 0.0
2015-Jul-11 21:30S 33°52' E 018°27'0 0.1
2015-Jul-11 20:33S 33°52' E 018°27'0 0.0
2015-Jul-11 19:33S 33°52' E 018°27'0 0.0
2015-Jul-11 18:21S 33°52' E 018°27'0 0.2
2015-Jul-11 17:33S 33°52' E 018°27'0 0.1
2015-Jul-11 16:33S 33°52' E 018°27'130 7.5
2015-Jul-10 23:11S 34°52' E 020°46'810.0
2015-Jul-10 22:23S 34°51' E 020°56'910.2
2015-Jul-10 21:32S 34°49' E 021°06'2610.3
2015-Jul-10 19:03S 34°46' E 021°37'1910.4
2015-Jul-10 17:13S 34°43' E 021°60'710.7
2015-Jul-10 16:32S 34°41' E 022°09'49710.6
2015-Jul-08 17:26S 30°35' E 030°42'8 8.8
2015-Jul-08 16:31S 30°29' E 030°47'9 9.0
2015-Jul-08 15:33S 30°21' E 030°52'9 9.2
2015-Jul-08 14:33S 30°13' E 030°58'1010.3
2015-Jul-08 13:33S 30°04' E 031°04'1010.0
2015-Jul-08 12:33S 29°56' E 031°10'8 7.9
2015-Jul-08 11:34S 29°52' E 031°02'2 1.5
2015-Jul-08 10:32S 29°53' E 031°00'0 0.0
2015-Jul-08 09:32S 29°53' E 031°00'0 0.0
2015-Jul-08 08:29S 29°53' E 031°00'0 0.0
2015-Jul-08 07:29S 29°53' E 031°00'0 0.0
2015-Jul-08 06:32S 29°53' E 031°00'0 0.0
2015-Jul-08 05:32S 29°53' E 031°00'0 0.0
2015-Jul-08 04:32S 29°53' E 031°00'0 0.0
2015-Jul-08 03:32S 29°53' E 031°00'0 0.0
2015-Jul-08 02:32S 29°53' E 031°00'0 0.0
2015-Jul-08 01:32S 29°53' E 031°00'0 0.0
2015-Jul-08 00:32S 29°53' E 031°00'0 0.0
2015-Jul-07 23:32S 29°53' E 031°00'0 0.0
2015-Jul-07 22:32S 29°53' E 031°00'0 0.0
2015-Jul-07 21:29S 29°53' E 031°00'0 0.0
2015-Jul-07 20:32S 29°53' E 031°00'0 0.0
2015-Jul-07 19:32S 29°53' E 031°00'0 0.0
2015-Jul-07 18:32S 29°53' E 031°00'0 0.0
2015-Jul-07 17:29S 29°53' E 031°00'0 0.0
2015-Jul-07 16:23S 29°53' E 031°00'0 0.0
2015-Jul-07 15:32S 29°53' E 031°00'0 0.0
2015-Jul-07 14:32S 29°53' E 031°00'0 0.0
2015-Jul-07 13:32S 29°53' E 031°00'0 0.0
2015-Jul-07 12:32S 29°53' E 031°00'0 0.0
2015-Jul-07 11:32S 29°53' E 031°00'0 0.0
2015-Jul-07 10:29S 29°53' E 031°00'0 0.0
2015-Jul-07 09:32S 29°53' E 031°00'0 0.0
2015-Jul-07 08:32S 29°53' E 031°00'0 0.0
2015-Jul-07 07:32S 29°53' E 031°00'0 0.0
2015-Jul-07 06:32S 29°53' E 031°00'0 0.0
2015-Jul-07 05:32S 29°53' E 031°00'0 0.0
2015-Jul-07 04:32S 29°53' E 031°00'0 0.0
2015-Jul-07 03:29S 29°53' E 031°00'0 0.0
2015-Jul-07 02:29S 29°53' E 031°00'0 0.0
2015-Jul-07 01:26S 29°53' E 031°00'0 0.0
2015-Jul-07 00:32S 29°53' E 031°00'0 0.0
2015-Jul-06 23:32S 29°53' E 031°00'0 0.0
2015-Jul-06 22:32S 29°53' E 031°00'0 0.0
2015-Jul-06 21:32S 29°53' E 031°00'0 0.0
2015-Jul-06 20:29S 29°53' E 031°00'0 0.0
2015-Jul-06 19:29S 29°53' E 031°00'0 0.0
2015-Jul-06 18:23S 29°53' E 031°00'0 0.0
2015-Jul-06 17:29S 29°53' E 031°00'0 0.0
2015-Jul-06 16:32S 29°53' E 031°00'0 0.0
2015-Jul-06 15:32S 29°53' E 031°00'0 0.0
2015-Jul-06 14:32S 29°53' E 031°00'0 0.0
2015-Jul-06 13:29S 29°53' E 031°00'0 0.0
2015-Jul-06 12:29S 29°53' E 031°00'0 0.0
2015-Jul-06 11:29S 29°53' E 031°00'0 0.0
2015-Jul-06 10:29S 29°53' E 031°00'0 0.0
2015-Jul-06 09:32S 29°53' E 031°00'0 0.0
2015-Jul-06 08:32S 29°53' E 031°00'0 0.0
2015-Jul-06 07:32S 29°53' E 031°00'0 0.0
2015-Jul-06 06:32S 29°53' E 031°00'0 0.0
2015-Jul-06 05:32S 29°53' E 031°00'0 0.0
2015-Jul-06 04:32S 29°53' E 031°00'0 0.0
2015-Jul-06 03:32S 29°53' E 031°00'0 0.0
2015-Jul-06 02:32S 29°53' E 031°00'0 0.0
2015-Jul-06 01:32S 29°53' E 031°00'0 0.0
2015-Jul-06 00:32S 29°53' E 031°00'0 0.0
2015-Jul-05 23:32S 29°53' E 031°00'0 0.0
2015-Jul-05 22:32S 29°53' E 031°00'0 0.0
2015-Jul-05 21:32S 29°53' E 031°00'0 0.0
2015-Jul-05 20:32S 29°53' E 031°00'0 0.0
2015-Jul-05 19:32S 29°53' E 031°00'0 0.0
2015-Jul-05 18:29S 29°53' E 031°00'0 0.0
2015-Jul-05 17:32S 29°53' E 031°00'0 0.0
2015-Jul-05 16:32S 29°53' E 031°00'0 0.0
2015-Jul-05 15:32S 29°53' E 031°00'0 0.0
2015-Jul-05 14:32S 29°53' E 031°00'0 0.0
2015-Jul-05 13:32S 29°53' E 031°00'0 0.0
2015-Jul-05 12:32S 29°53' E 031°00'0 0.0
2015-Jul-05 11:32S 29°53' E 031°00'0 0.0
2015-Jul-05 10:32S 29°53' E 031°00'0 0.0
2015-Jul-05 09:32S 29°53' E 031°00'0 0.0
2015-Jul-05 08:32S 29°53' E 031°00'0 0.0
2015-Jul-05 07:29S 29°53' E 031°00'0 0.0
2015-Jul-05 06:32S 29°53' E 031°00'2 1.7
2015-Jul-05 05:33S 29°52' E 031°02'5 5.3
2015-Jul-05 04:34S 29°49' E 031°07'2 1.7
2015-Jul-05 03:34S 29°50' E 031°08'5 5.0
2015-Jul-05 02:34S 29°55' E 031°09'1312.6
2015-Jul-05 01:33S 30°07' E 031°02'1919.2
2015-Jul-05 00:33S 30°23' E 030°51'2019.4
2015-Jul-04 23:31S 30°40' E 030°38'1718.4
2015-Jul-04 22:33S 30°55' E 030°28'1917.0
2015-Jul-04 21:27S 31°10' E 030°15'  

Dump ship's entire track history